Time;durP1;ratioP1;P1;durP2;ratioP2;P2;SDS_P1;SDS_P2;PMS_P1;PMS_P2;Temp;Humidity;BMP_temperature;BMP_pressure;BME280_temperature;BME280_humidity;BME280_pressure;Samples;Min_cycle;Max_cycle;Signal;HPM_P1;HPM_P2
2021/12/21 00:00:47;;;;;;;6.43;1.90;;;32.40;66.20;;;;;;5092712;28;20035;-71
2021/12/21 00:03:14;;;;;;;5.32;3.22;;;32.60;63.30;;;;;;5091881;28;20020;-73
2021/12/21 00:05:42;;;;;;;4.82;1.55;;;32.70;64.90;;;;;;5094114;28;20066;-69
2021/12/21 00:08:12;;;;;;;3.10;1.27;;;32.70;63.90;;;;;;5073607;28;20520;-71
2021/12/21 00:10:43;;;;;;;3.17;1.42;;;32.60;65.50;;;;;;5096498;28;20020;-74
2021/12/21 00:13:25;;;;;;;7.40;2.43;;;32.70;65.20;;;;;;5087737;28;20024;-68
2021/12/21 00:26:08;;;;;;;7.28;2.40;;;33.40;61.80;;;;;;5083987;28;20031;-72
2021/12/21 00:28:58;;;;;;;4.55;2.08;;;33.50;62.60;;;;;;5082616;28;20020;-73
2021/12/21 00:31:27;;;;;;;5.78;2.95;;;33.80;62.20;;;;;;5064373;28;20040;-72
2021/12/21 00:33:55;;;;;;;5.47;1.60;;;33.90;59.00;;;;;;5063289;28;20036;-73
2021/12/21 00:36:27;;;;;;;4.65;1.45;;;33.70;57.70;;;;;;5083247;28;20156;-75
2021/12/21 00:38:56;;;;;;;6.63;1.80;;;34.00;59.60;;;;;;5082804;28;20016;-74
2021/12/21 00:41:25;;;;;;;4.95;1.55;;;34.40;56.20;;;;;;5084879;28;20025;-70
2021/12/21 00:43:52;;;;;;;4.43;1.73;;;34.40;57.00;;;;;;5085664;28;20448;-72
2021/12/21 00:46:19;;;;;;;6.78;1.70;;;34.60;54.00;;;;;;5064013;28;20469;-71
2021/12/21 00:48:53;;;;;;;7.13;2.03;;;34.70;54.40;;;;;;5085228;28;20023;-74
2021/12/21 00:51:26;;;;;;;7.35;2.17;;;34.50;57.50;;;;;;5084237;28;20019;-71
2021/12/21 00:53:53;;;;;;;7.88;4.22;;;34.70;56.30;;;;;;5064040;28;20023;-74
2021/12/21 00:56:20;;;;;;;5.20;2.05;;;34.80;57.60;;;;;;5082609;28;20032;-72
2021/12/21 00:58:47;;;;;;;4.13;1.40;;;35.00;57.10;;;;;;5081590;28;20036;-72
2021/12/21 01:01:15;;;;;;;5.57;1.50;;;35.10;57.00;;;;;;5082119;28;20029;-74
2021/12/21 01:03:47;;;;;;;4.40;1.65;;;35.60;56.10;;;;;;5066101;28;20032;-72
2021/12/21 01:09:10;;;;;;;3.78;2.08;;;36.10;51.30;;;;;;5081207;28;20036;-70
2021/12/21 01:11:46;;;;;;;5.28;1.63;;;35.70;52.70;;;;;;5063556;28;20024;-70
2021/12/21 01:17:09;;;;;;;4.68;1.60;;;35.50;53.70;;;;;;5083480;28;20058;-71
2021/12/21 01:19:56;;;;;;;5.65;1.83;;;35.90;54.30;;;;;;5084254;28;20428;-70
2021/12/21 01:28:06;;;;;;;5.45;1.70;;;36.50;51.90;;;;;;5082414;28;20027;-69
2021/12/21 01:33:22;;;;;;;3.33;1.40;;;36.70;50.50;;;;;;5081703;28;20407;-69
2021/12/21 01:35:52;;;;;;;4.38;1.50;;;36.70;49.00;;;;;;5082809;28;20044;-68
2021/12/21 01:38:34;;;;;;;4.28;1.85;;;36.30;50.00;;;;;;5081288;28;20020;-69
2021/12/21 01:41:21;;;;;;;;;;;36.20;52.30;;;;;;5081037;28;20034;-68
2021/12/21 01:44:09;;;;;;;4.55;1.48;;;36.50;51.90;;;;;;5079118;28;19912;-70
2021/12/21 01:52:14;;;;;;;6.15;1.75;;;37.10;49.30;;;;;;5077237;28;20111;-69
2021/12/21 01:54:42;;;;;;;7.63;1.73;;;37.40;46.80;;;;;;5077011;28;20036;-68
2021/12/21 01:57:10;;;;;;;2.85;1.60;;;37.30;47.40;;;;;;5093452;28;20036;-68
2021/12/21 01:59:38;;;;;;;5.30;1.60;;;37.70;48.30;;;;;;5058901;28;20060;-71
2021/12/21 02:02:08;;;;;;;6.70;1.83;;;37.70;46.10;;;;;;5078260;28;20028;-67
2021/12/21 02:04:40;;;;;;;10.98;2.05;;;37.60;45.30;;;;;;5078038;28;20070;-70
2021/12/21 02:07:08;;;;;;;4.28;1.50;;;37.20;46.00;;;;;;5077550;28;20477;-69
2021/12/21 02:09:39;;;;;;;3.78;1.63;;;36.90;47.10;;;;;;5058782;28;20116;-70
2021/12/21 02:12:10;;;;;;;4.95;2.00;;;37.10;46.40;;;;;;5059024;28;20031;-68
2021/12/21 02:14:39;;;;;;;5.47;3.05;;;37.30;47.30;;;;;;5059806;28;20062;-68
2021/12/21 02:17:39;;;;;;;1.60;1.15;;;37.40;47.30;;;;;;5077805;28;20174;-68
2021/12/21 02:20:25;;;;;;;4.97;2.58;;;37.60;47.10;;;;;;5076194;28;20416;-70
2021/12/21 02:23:06;;;;;;;10.53;7.63;;;38.10;48.70;;;;;;5080352;28;20119;-70
2021/12/21 02:25:55;;;;;;;9.25;2.70;;;38.50;48.70;;;;;;5078230;28;20028;-68
2021/12/21 02:28:44;;;;;;;5.20;2.63;;;39.00;45.00;;;;;;5080221;28;20051;-71
2021/12/21 02:31:10;;;;;;;7.05;1.85;;;39.10;44.20;;;;;;5075847;28;20048;-69
2021/12/21 02:33:37;;;;;;;3.67;1.65;;;38.80;44.30;;;;;;5077785;28;20029;-72
2021/12/21 02:36:04;;;;;;;3.92;1.83;;;39.20;43.50;;;;;;5075778;28;20024;-72
2021/12/21 02:38:32;;;;;;;3.97;1.75;;;39.20;44.70;;;;;;5077475;28;20028;-70
2021/12/21 02:40:59;;;;;;;4.63;1.60;;;39.30;44.90;;;;;;5077829;28;20042;-71
2021/12/21 02:43:28;;;;;;;2.97;1.60;;;39.40;43.20;;;;;;5079052;28;20032;-73
2021/12/21 02:45:56;;;;;;;4.85;1.63;;;39.20;43.70;;;;;;5077209;28;21061;-72
2021/12/21 02:48:23;;;;;;;5.68;1.48;;;39.00;44.60;;;;;;5076708;28;20020;-70
2021/12/21 02:50:50;;;;;;;7.60;2.10;;;39.10;42.80;;;;;;5057750;28;20865;-74
2021/12/21 02:53:17;;;;;;;4.88;1.45;;;39.10;44.20;;;;;;5078920;28;20052;-72
2021/12/21 02:55:44;;;;;;;6.18;1.70;;;39.30;44.30;;;;;;5076928;28;20031;-74
2021/12/21 02:58:11;;;;;;;5.43;1.60;;;39.50;44.70;;;;;;5074296;28;20031;-76
2021/12/21 03:00:38;;;;;;;4.65;1.90;;;39.70;45.50;;;;;;5075568;28;20400;-75
2021/12/21 03:03:13;;;;;;;5.25;1.50;;;39.50;45.00;;;;;;5076398;28;20024;-76
2021/12/21 03:05:46;;;;;;;5.30;1.98;;;39.50;42.90;;;;;;5078190;28;20028;-68
2021/12/21 03:08:34;;;;;;;4.57;1.80;;;39.80;41.70;;;;;;5058423;28;20081;-71
2021/12/21 03:11:18;;;;;;;3.28;1.42;;;39.40;42.70;;;;;;5077705;28;20027;-75
2021/12/21 03:16:31;;;;;;;3.80;1.63;;;39.40;44.20;;;;;;5079027;28;20085;-72
2021/12/21 03:18:59;;;;;;;4.28;1.50;;;39.90;44.90;;;;;;5061141;28;20083;-66
2021/12/21 03:21:27;;;;;;;8.77;2.10;;;40.20;42.30;;;;;;5060738;28;20035;-70
2021/12/21 03:23:55;;;;;;;7.45;1.77;;;40.10;41.30;;;;;;5074861;28;20404;-67
2021/12/21 03:26:22;;;;;;;3.47;1.70;;;40.10;42.70;;;;;;5076619;28;20024;-69
2021/12/21 03:28:49;;;;;;;3.33;1.50;;;40.10;40.70;;;;;;5075613;28;20021;-68
2021/12/21 03:31:16;;;;;;;3.70;1.40;;;40.00;41.30;;;;;;5076612;28;20085;-71
2021/12/21 03:33:43;;;;;;;7.88;1.83;;;40.20;40.90;;;;;;5075998;28;20028;-71
2021/12/21 03:36:10;;;;;;;5.95;1.58;;;40.30;39.00;;;;;;5076845;28;20087;-72
2021/12/21 03:38:39;;;;;;;5.03;1.30;;;40.20;42.30;;;;;;5075972;28;20519;-75
2021/12/21 03:41:12;;;;;;;4.45;1.50;;;40.30;39.70;;;;;;5076595;28;20115;-71
2021/12/21 03:43:39;;;;;;;2.30;1.20;;;40.30;39.40;;;;;;5076041;28;20047;-68
2021/12/21 03:46:11;;;;;;;6.10;2.05;;;40.30;41.10;;;;;;5076958;28;20043;-66
2021/12/21 03:48:41;;;;;;;3.45;1.88;;;39.20;43.60;;;;;;5076520;28;20038;-71
2021/12/21 03:51:09;;;;;;;4.93;1.50;;;38.60;44.10;;;;;;5076918;28;20501;-66
2021/12/21 03:53:37;;;;;;;4.85;1.80;;;38.00;44.80;;;;;;5074914;28;20036;-71
2021/12/21 03:56:26;;;;;;;5.93;1.85;;;37.70;45.70;;;;;;5076500;28;20051;-66
2021/12/21 03:58:52;;;;;;;6.78;1.90;;;37.80;44.50;;;;;;5075476;28;20418;-71
2021/12/21 04:01:19;;;;;;;4.90;2.38;;;37.90;45.20;;;;;;5075581;28;20032;-71
2021/12/21 04:03:47;;;;;;;3.50;1.60;;;38.10;46.90;;;;;;5077982;28;20031;-72
2021/12/21 04:06:14;;;;;;;7.20;2.40;;;38.10;45.70;;;;;;5078595;28;20024;-71
2021/12/21 04:08:41;;;;;;;5.80;1.95;;;37.90;46.40;;;;;;5061310;28;20036;-70
2021/12/21 04:11:08;;;;;;;7.40;2.30;;;37.50;45.80;;;;;;5078523;28;20070;-71
2021/12/21 04:13:35;;;;;;;5.93;1.98;;;37.20;46.60;;;;;;5078263;28;20089;-70
2021/12/21 04:16:04;;;;;;;5.82;1.88;;;37.30;47.00;;;;;;5081366;28;20032;-73
2021/12/21 04:18:35;;;;;;;4.97;1.83;;;37.40;46.30;;;;;;5080793;28;20059;-66
2021/12/21 04:21:04;;;;;;;4.28;1.70;;;37.30;47.10;;;;;;5079657;28;20078;-72
2021/12/21 04:23:31;;;;;;;7.53;1.58;;;37.50;46.10;;;;;;5082051;28;20089;-73
2021/12/21 04:25:59;;;;;;;4.32;1.48;;;37.90;45.50;;;;;;5060408;28;20093;-71
2021/12/21 04:28:26;;;;;;;4.93;1.63;;;38.10;45.70;;;;;;5059805;28;20425;-71
2021/12/21 04:30:53;;;;;;;3.08;1.58;;;38.00;46.10;;;;;;5079575;28;20077;-71
2021/12/21 04:33:20;;;;;;;4.65;1.42;;;37.80;45.50;;;;;;5080063;28;20036;-69
2021/12/21 04:35:47;;;;;;;4.78;2.08;;;37.70;45.80;;;;;;5078544;28;20017;-72
2021/12/21 04:38:21;;;;;;;8.15;1.70;;;37.60;46.70;;;;;;5078898;28;20127;-71
2021/12/21 04:40:54;;;;;;;5.95;1.58;;;37.70;47.20;;;;;;5060192;28;20452;-73
2021/12/21 04:43:21;;;;;;;7.03;1.88;;;37.40;46.00;;;;;;5078980;28;20427;-73
2021/12/21 04:45:47;;;;;;;5.18;1.52;;;37.60;47.10;;;;;;5078136;28;20048;-71
2021/12/21 04:48:15;;;;;;;3.50;1.70;;;38.20;45.10;;;;;;5078171;28;20516;-71
2021/12/21 04:50:43;;;;;;;4.30;1.35;;;38.30;45.90;;;;;;5078457;28;20025;-72
2021/12/21 04:53:10;;;;;;;3.17;1.60;;;38.30;45.30;;;;;;5061108;28;20411;-70
2021/12/21 04:55:37;;;;;;;4.60;1.63;;;38.10;46.10;;;;;;5077777;28;20045;-72
2021/12/21 04:58:05;;;;;;;5.43;1.70;;;38.20;46.80;;;;;;5077120;28;20039;-68
2021/12/21 05:00:32;;;;;;;5.70;1.85;;;38.30;45.80;;;;;;5077810;28;20534;-68
2021/12/21 05:02:59;;;;;;;6.00;2.08;;;38.20;47.10;;;;;;5077768;28;20028;-71
2021/12/21 05:05:26;;;;;;;4.18;1.58;;;38.40;45.00;;;;;;5079757;28;20111;-71
2021/12/21 05:08:06;;;;;;;3.20;1.55;;;38.00;46.70;;;;;;5078399;28;20086;-72
2021/12/21 05:10:42;;;;;;;4.88;1.98;;;37.80;45.70;;;;;;5058962;28;20515;-70
2021/12/21 05:13:09;;;;;;;5.35;1.83;;;37.80;46.20;;;;;;5078470;28;20082;-68
2021/12/21 05:15:36;;;;;;;8.05;1.83;;;38.20;45.70;;;;;;5079475;28;20188;-67
2021/12/21 05:18:03;;;;;;;3.35;1.70;;;38.00;44.90;;;;;;5060122;28;20496;-71
2021/12/21 05:20:30;;;;;;;4.97;1.80;;;37.40;46.50;;;;;;5059680;28;21134;-69
2021/12/21 05:22:57;;;;;;;5.68;1.73;;;36.90;46.70;;;;;;5077510;28;20572;-71
2021/12/21 05:25:24;;;;;;;4.85;2.38;;;37.00;46.70;;;;;;5077478;28;20702;-67
2021/12/21 05:27:51;;;;;;;5.85;1.88;;;37.00;46.40;;;;;;5077301;28;20507;-68
2021/12/21 05:30:18;;;;;;;4.55;1.65;;;37.20;46.70;;;;;;5077113;28;20127;-71
2021/12/21 05:32:45;;;;;;;5.35;1.80;;;36.90;46.80;;;;;;5077361;28;20067;-67
2021/12/21 05:35:12;;;;;;;9.20;2.17;;;37.30;46.40;;;;;;5077495;28;20055;-71
2021/12/21 05:37:40;;;;;;;5.25;1.70;;;37.50;46.70;;;;;;5077732;28;20081;-71
2021/12/21 05:40:15;;;;;;;5.57;1.83;;;37.30;45.80;;;;;;5077519;28;20028;-71
2021/12/21 05:42:44;;;;;;;4.40;1.70;;;37.40;46.50;;;;;;5077328;28;20392;-70
2021/12/21 05:45:14;;;;;;;4.05;1.40;;;37.30;46.60;;;;;;5091384;22;20908;-72
2021/12/21 05:47:41;;;;;;;4.70;1.60;;;37.40;46.30;;;;;;5134607;27;20476;-71
2021/12/21 05:50:12;;;;;;;7.40;2.03;;;37.40;45.70;;;;;;5118617;27;20019;-72
2021/12/21 05:52:39;;;;;;;4.25;1.65;;;37.20;46.00;;;;;;5117946;27;20020;-68
2021/12/21 05:55:07;;;;;;;5.05;1.75;;;36.80;47.20;;;;;;5119191;27;20159;-70
2021/12/21 05:57:34;;;;;;;5.75;1.80;;;36.90;47.40;;;;;;5116440;27;20038;-71
2021/12/21 06:00:03;;;;;;;5.80;2.20;;;37.00;46.60;;;;;;5116882;27;20030;-72
2021/12/21 06:02:30;;;;;;;7.78;1.83;;;37.10;47.30;;;;;;5116514;27;20157;-69
2021/12/21 06:04:57;;;;;;;4.80;1.70;;;36.90;47.00;;;;;;5117710;27;20122;-68
2021/12/21 06:07:24;;;;;;;5.90;1.80;;;37.00;48.30;;;;;;5115956;27;20035;-73
2021/12/21 06:09:51;;;;;;;5.95;1.75;;;37.40;46.80;;;;;;5117219;27;20024;-73
2021/12/21 06:26:14;;;;;;;6.47;2.25;;;37.90;47.50;;;;;;5060666;28;20111;-71
2021/12/21 06:28:44;;;;;;;5.65;1.85;;;37.50;48.70;;;;;;5091462;27;20069;-68
2021/12/21 06:31:11;;;;;;;6.72;2.10;;;38.00;48.10;;;;;;5117002;27;20049;-71
2021/12/21 06:33:38;;;;;;;5.90;2.10;;;38.10;47.90;;;;;;5117626;27;20057;-69
2021/12/21 06:36:07;;;;;;;8.00;2.05;;;38.40;48.60;;;;;;5118587;27;20577;-71
2021/12/21 06:38:34;;;;;;;6.95;2.13;;;38.70;47.30;;;;;;5118313;27;20073;-73
2021/12/21 06:41:02;;;;;;;6.72;2.20;;;38.60;47.80;;;;;;5116602;27;20056;-68
2021/12/21 06:43:29;;;;;;;5.55;2.22;;;38.70;48.80;;;;;;5117006;27;20031;-71
2021/12/21 06:46:05;;;;;;;9.27;2.63;;;38.30;48.00;;;;;;5117321;27;20039;-69
2021/12/21 06:51:31;;;;;;;7.18;2.20;;;38.40;48.60;;;;;;5119018;27;20155;-73
2021/12/21 06:53:59;;;;;;;6.38;2.30;;;38.00;48.30;;;;;;5117705;27;20035;-73
2021/12/21 06:56:27;;;;;;;5.80;2.10;;;37.80;48.50;;;;;;5116523;27;20042;-68
2021/12/21 06:58:55;;;;;;;7.68;2.45;;;37.40;49.30;;;;;;5115462;27;20066;-71
2021/12/21 07:01:26;;;;;;;7.90;2.58;;;37.60;49.20;;;;;;5118562;27;20185;-68
2021/12/21 07:03:53;;;;;;;5.72;1.90;;;37.50;49.70;;;;;;5116697;28;20028;-68
2021/12/21 07:06:22;;;;;;;4.93;2.13;;;37.10;50.40;;;;;;5117863;27;20034;-67
2021/12/21 07:19:24;;;;;;;5.60;2.15;;;36.90;50.70;;;;;;5118306;27;20511;-66
2021/12/21 07:21:51;;;;;;;5.57;2.25;;;37.10;50.20;;;;;;5117771;27;20114;-67
2021/12/21 07:24:18;;;;;;;4.45;2.00;;;36.70;50.20;;;;;;5117664;27;20020;-67
2021/12/21 07:26:45;;;;;;;6.30;2.65;;;36.30;50.60;;;;;;5116931;28;20032;-67
2021/12/21 07:29:12;;;;;;;4.03;1.83;;;36.00;51.70;;;;;;5118859;27;20027;-70
2021/12/21 07:31:39;;;;;;;5.00;1.90;;;35.90;51.60;;;;;;5117405;27;20039;-67
2021/12/21 07:34:06;;;;;;;5.00;2.20;;;35.90;51.10;;;;;;5117112;27;20391;-67
2021/12/21 07:36:34;;;;;;;6.05;2.25;;;35.80;51.50;;;;;;5114785;27;20061;-68
2021/12/21 07:39:05;;;;;;;6.53;2.17;;;35.50;52.60;;;;;;5116611;27;20499;-68
2021/12/21 07:41:32;;;;;;;4.50;2.05;;;35.60;52.30;;;;;;5122020;27;20440;-66
2021/12/21 07:43:59;;;;;;;5.95;2.00;;;35.50;52.40;;;;;;5119826;27;20121;-71
2021/12/21 07:46:26;;;;;;;7.45;2.38;;;35.80;52.10;;;;;;5121032;27;20040;-68
2021/12/21 07:48:54;;;;;;;6.10;2.00;;;35.70;52.20;;;;;;4468583;27;10001841;-68
2021/12/21 07:51:25;;;;;;;7.68;2.55;;;35.70;52.30;;;;;;5116547;27;20246;-67
2021/12/21 07:53:52;;;;;;;7.35;3.00;;;35.40;52.80;;;;;;5116807;27;20023;-67
2021/12/21 07:56:19;;;;;;;7.75;2.22;;;35.20;53.20;;;;;;5118605;27;20072;-67
2021/12/21 07:58:47;;;;;;;7.30;2.25;;;35.00;53.60;;;;;;5114320;27;20042;-67
2021/12/21 08:01:15;;;;;;;7.90;2.25;;;35.20;53.30;;;;;;5116952;27;20520;-71
2021/12/21 08:03:42;;;;;;;6.72;1.67;;;35.30;53.30;;;;;;5117409;27;20038;-72
2021/12/21 08:06:12;;;;;;;5.78;2.10;;;34.90;53.60;;;;;;5115703;27;20052;-67
2021/12/21 08:08:43;;;;;;;4.75;1.90;;;34.20;55.00;;;;;;5119937;27;20019;-67
2021/12/21 08:13:43;;;;;;;9.55;2.20;;;34.10;55.30;;;;;;5117896;27;20019;-69
2021/12/21 08:16:11;;;;;;;6.30;2.15;;;34.00;56.00;;;;;;5120532;27;20031;-67
2021/12/21 08:18:39;;;;;;;6.60;1.90;;;34.00;55.50;;;;;;5116671;27;20030;-71
2021/12/21 08:21:06;;;;;;;5.60;2.25;;;33.50;56.40;;;;;;5117434;27;20062;-66
2021/12/21 08:23:33;;;;;;;4.90;1.90;;;33.20;57.90;;;;;;5119108;27;20398;-68
2021/12/21 08:26:01;;;;;;;7.55;2.13;;;33.00;57.80;;;;;;5120894;27;20019;-67
2021/12/21 08:28:28;;;;;;;8.25;2.10;;;32.30;59.40;;;;;;5122241;27;20027;-72
2021/12/21 08:30:55;;;;;;;9.27;3.03;;;31.20;62.30;;;;;;5121032;27;20029;-68
2021/12/21 08:33:22;;;;;;;6.70;1.80;;;30.10;66.30;;;;;;5116933;27;20070;-73
2021/12/21 08:35:49;;;;;;;7.68;2.10;;;29.40;69.70;;;;;;5116236;27;20016;-72
2021/12/21 08:38:19;;;;;;;5.82;2.10;;;28.80;73.00;;;;;;5116186;27;20031;-67
2021/12/21 08:40:49;;;;;;;8.88;1.95;;;28.40;76.60;;;;;;5114824;27;20029;-66
2021/12/21 08:43:24;;;;;;;8.85;1.98;;;28.00;79.50;;;;;;5116310;27;20428;-73
2021/12/21 08:45:54;;;;;;;4.72;2.15;;;27.90;82.10;;;;;;5114430;27;20046;-67
2021/12/21 08:48:22;;;;;;;6.65;2.25;;;27.90;84.40;;;;;;5116316;27;20019;-66
2021/12/21 08:50:53;;;;;;;9.55;2.28;;;27.60;87.30;;;;;;5116345;27;20019;-71
2021/12/21 08:53:25;;;;;;;7.15;2.50;;;27.30;90.30;;;;;;5116326;27;20107;-67
2021/12/21 08:55:53;;;;;;;6.97;2.22;;;27.00;92.30;;;;;;5114459;27;20634;-66
2021/12/21 08:58:21;;;;;;;10.68;2.35;;;26.70;93.60;;;;;;5113971;27;20380;-72
2021/12/21 09:00:49;;;;;;;10.15;2.55;;;26.50;95.30;;;;;;5113871;27;20035;-71
2021/12/21 09:03:16;;;;;;;10.88;3.25;;;26.30;96.70;;;;;;5117562;27;20035;-73
2021/12/21 09:05:44;;;;;;;6.65;1.90;;;26.20;97.50;;;;;;5113499;27;20035;-69
2021/12/21 09:08:11;;;;;;;10.88;2.90;;;26.20;98.70;;;;;;5123597;27;20350;-76
2021/12/21 09:10:40;;;;;;;7.70;2.40;;;26.10;98.90;;;;;;5117299;27;20440;-74
2021/12/21 09:13:09;;;;;;;8.77;2.40;;;26.00;99.60;;;;;;5123715;27;20072;-72
2021/12/21 09:15:37;;;;;;;6.93;1.88;;;25.80;99.90;;;;;;5124142;27;20058;-69
2021/12/21 09:18:05;;;;;;;9.15;2.10;;;25.80;99.90;;;;;;5126123;27;20054;-69
2021/12/21 09:20:33;;;;;;;6.82;2.47;;;25.70;99.90;;;;;;5121566;27;20027;-69
2021/12/21 09:23:01;;;;;;;6.80;2.10;;;25.60;99.90;;;;;;5123418;27;20488;-70
2021/12/21 09:25:29;;;;;;;8.27;2.25;;;25.50;99.90;;;;;;5123365;27;20035;-69
2021/12/21 09:27:57;;;;;;;9.40;1.70;;;25.50;99.90;;;;;;5123254;27;20027;-69
2021/12/21 09:30:28;;;;;;;5.18;2.40;;;25.50;99.90;;;;;;5124177;27;20502;-68
2021/12/21 09:32:55;;;;;;;7.47;2.58;;;25.40;99.90;;;;;;5127912;27;20077;-67
2021/12/21 09:35:22;;;;;;;6.47;2.25;;;25.30;99.90;;;;;;5117886;27;20053;-69
2021/12/21 09:37:50;;;;;;;9.13;3.03;;;25.20;99.90;;;;;;5122502;27;20035;-71
2021/12/21 09:40:23;;;;;;;6.82;2.85;;;25.10;99.90;;;;;;5120860;27;20027;-68
2021/12/21 09:42:51;;;;;;;6.68;3.22;;;25.10;99.90;;;;;;5123550;27;20023;-69
2021/12/21 09:45:19;;;;;;;9.43;2.88;;;25.10;99.90;;;;;;5123358;27;20155;-69
2021/12/21 09:47:49;;;;;;;8.85;2.47;;;25.10;99.90;;;;;;5122895;27;20495;-69
2021/12/21 09:50:18;;;;;;;7.07;2.38;;;25.00;99.90;;;;;;5123623;27;20658;-68
2021/12/21 09:52:45;;;;;;;5.72;2.40;;;25.00;99.90;;;;;;5120953;27;20364;-71
2021/12/21 09:55:14;;;;;;;6.75;2.45;;;24.90;99.90;;;;;;5121865;27;20023;-70
2021/12/21 09:57:42;;;;;;;5.40;2.30;;;25.00;99.90;;;;;;5120759;27;20318;-69
2021/12/21 10:00:12;;;;;;;8.25;2.42;;;25.10;99.90;;;;;;5121159;27;20523;-70
2021/12/21 10:02:40;;;;;;;6.93;2.47;;;25.00;99.90;;;;;;5120967;27;20049;-70
2021/12/21 10:05:15;;;;;;;6.75;2.40;;;25.00;99.90;;;;;;5122292;27;20435;-69
2021/12/21 10:07:42;;;;;;;5.30;2.33;;;24.90;99.90;;;;;;5123075;27;20130;-70
2021/12/21 10:10:15;;;;;;;10.18;2.70;;;24.90;99.90;;;;;;5122710;27;20023;-68
2021/12/21 10:12:45;;;;;;;8.48;2.40;;;24.90;99.90;;;;;;5123083;27;20023;-68
2021/12/21 10:15:20;;;;;;;5.28;2.90;;;24.90;99.90;;;;;;5124160;27;20029;-68
2021/12/21 10:17:59;;;;;;;10.68;3.40;;;24.90;99.90;;;;;;5122379;27;20543;-69
2021/12/21 10:20:39;;;;;;;9.05;3.35;;;24.80;99.90;;;;;;5121267;27;20047;-70
2021/12/21 10:23:13;;;;;;;10.65;3.00;;;24.70;99.90;;;;;;5122059;27;20445;-69
2021/12/21 10:25:49;;;;;;;8.60;2.75;;;24.70;99.90;;;;;;5119332;27;20027;-70
2021/12/21 10:28:42;;;;;;;8.18;3.35;;;24.70;99.90;;;;;;5114527;27;20023;-71
2021/12/21 10:31:12;;;;;;;6.72;2.50;;;24.90;99.90;;;;;;5113863;27;20023;-71
2021/12/21 10:33:43;;;;;;;7.50;2.80;;;25.10;99.90;;;;;;5122726;27;20036;-71
2021/12/21 10:36:12;;;;;;;8.60;2.40;;;25.20;99.90;;;;;;5125359;27;20069;-70
2021/12/21 10:38:51;;;;;;;7.90;2.80;;;25.10;99.90;;;;;;5121622;27;20263;-69
2021/12/21 10:41:32;;;;;;;7.22;2.58;;;25.00;99.90;;;;;;5121785;27;20030;-68
2021/12/21 10:44:05;;;;;;;6.25;2.83;;;25.00;99.90;;;;;;5120500;27;20027;-72
2021/12/21 10:46:35;;;;;;;10.02;3.35;;;25.00;99.90;;;;;;5114149;27;20447;-72
2021/12/21 10:49:14;;;;;;;5.75;2.72;;;25.00;99.90;;;;;;5120270;27;20050;-71
2021/12/21 10:52:04;;;;;;;7.57;2.88;;;25.10;99.90;;;;;;5117381;27;20020;-71
2021/12/21 10:54:40;;;;;;;9.38;2.70;;;25.00;99.90;;;;;;5119900;27;20025;-69
2021/12/21 10:57:11;;;;;;;9.23;2.70;;;24.90;99.90;;;;;;5116465;27;20576;-70
2021/12/21 10:59:41;;;;;;;10.38;3.10;;;24.80;99.90;;;;;;5119939;27;20023;-69
2021/12/21 11:02:31;;;;;;;8.60;2.72;;;24.70;99.90;;;;;;5121832;27;20046;-69
2021/12/21 11:05:02;;;;;;;9.07;3.58;;;24.70;99.90;;;;;;5122509;27;20031;-71
2021/12/21 11:07:37;;;;;;;10.40;4.80;;;24.70;99.90;;;;;;5118615;27;20027;-70
2021/12/21 11:10:17;;;;;;;10.05;4.00;;;24.60;99.90;;;;;;5123925;27;20083;-69
2021/12/21 11:12:53;;;;;;;12.90;4.25;;;24.50;99.90;;;;;;5125013;27;20019;-70
2021/12/21 11:15:29;;;;;;;14.70;4.03;;;24.40;99.90;;;;;;5125051;27;20395;-71
2021/12/21 11:17:58;;;;;;;9.75;3.30;;;24.20;99.90;;;;;;5128787;27;20023;-71
2021/12/21 11:20:27;;;;;;;7.55;3.30;;;24.20;99.90;;;;;;5127652;27;20071;-71
2021/12/21 11:22:55;;;;;;;11.40;3.55;;;24.10;99.90;;;;;;5128248;27;20027;-72
2021/12/21 11:25:23;;;;;;;10.48;3.55;;;24.00;99.90;;;;;;5126374;27;20064;-72
2021/12/21 11:27:51;;;;;;;7.90;3.03;;;23.90;99.90;;;;;;5129218;27;20033;-71
2021/12/21 11:30:21;;;;;;;11.38;3.30;;;23.90;99.90;;;;;;5129797;27;20030;-69
2021/12/21 11:32:52;;;;;;;8.00;3.03;;;23.90;99.90;;;;;;5126533;27;20454;-67
2021/12/21 11:38:00;;;;;;;8.93;3.05;;;23.70;99.90;;;;;;5129235;27;20034;-68
2021/12/21 11:40:31;;;;;;;7.57;2.67;;;23.60;99.90;;;;;;5127364;27;20034;-69
2021/12/21 11:43:22;;;;;;;10.95;3.17;;;23.60;99.90;;;;;;5128025;27;20659;-71
2021/12/21 11:45:55;;;;;;;7.50;2.50;;;23.50;99.90;;;;;;5127899;27;20047;-69
2021/12/21 11:48:46;;;;;;;10.65;3.17;;;23.50;99.90;;;;;;5128947;27;20043;-69
2021/12/21 11:51:14;;;;;;;10.25;2.85;;;23.40;99.90;;;;;;5123763;27;20027;-69
2021/12/21 11:53:41;;;;;;;6.28;2.88;;;23.40;99.90;;;;;;5129279;27;20034;-68
2021/12/21 11:56:17;;;;;;;14.23;3.72;;;23.30;99.90;;;;;;5128329;27;20055;-69
2021/12/21 11:58:43;;;;;;;8.50;2.80;;;23.30;99.90;;;;;;5131317;27;20610;-71
2021/12/21 12:01:23;;;;;;;10.88;2.80;;;23.20;99.90;;;;;;5134057;27;20045;-68
2021/12/21 12:04:16;;;;;;;6.43;2.55;;;23.20;99.90;;;;;;5133751;27;20059;-71
2021/12/21 12:06:51;;;;;;;10.90;2.78;;;23.20;99.90;;;;;;5129344;27;20084;-69
2021/12/21 12:09:36;;;;;;;11.65;3.70;;;23.20;99.90;;;;;;5133515;27;20478;-69
2021/12/21 12:12:17;;;;;;;13.10;3.33;;;23.10;99.90;;;;;;5133198;27;20429;-68
2021/12/21 12:14:58;;;;;;;7.00;2.40;;;23.10;99.90;;;;;;5133275;27;20080;-69
2021/12/21 12:17:26;;;;;;;9.88;2.65;;;23.00;99.90;;;;;;5132831;27;20025;-69
2021/12/21 12:19:58;;;;;;;9.63;3.08;;;23.00;99.90;;;;;;5136400;27;20027;-70
2021/12/21 12:22:38;;;;;;;13.43;2.97;;;23.00;99.90;;;;;;5132337;27;20451;-68
2021/12/21 12:25:09;;;;;;;7.30;2.70;;;22.90;99.90;;;;;;5132162;27;20109;-69
2021/12/21 12:27:44;;;;;;;11.48;3.17;;;22.90;99.90;;;;;;5125017;27;20030;-70
2021/12/21 12:30:16;;;;;;;10.20;2.92;;;22.90;99.90;;;;;;5135993;27;20015;-68
2021/12/21 12:32:48;;;;;;;15.65;3.30;;;22.80;99.90;;;;;;5134718;27;20019;-71
2021/12/21 12:35:26;;;;;;;11.38;3.80;;;22.70;99.90;;;;;;5132759;27;20106;-72
2021/12/21 12:38:02;;;;;;;12.63;3.30;;;22.70;99.90;;;;;;5131820;27;20429;-72
2021/12/21 12:40:33;;;;;;;10.77;3.17;;;22.70;99.90;;;;;;5129837;27;20027;-69
2021/12/21 12:43:11;;;;;;;12.85;3.40;;;22.70;99.90;;;;;;5133180;27;20027;-68
2021/12/21 12:45:45;;;;;;;14.57;3.58;;;22.70;99.90;;;;;;5132919;27;20078;-72
2021/12/21 12:48:31;;;;;;;13.30;3.38;;;22.80;99.90;;;;;;5131137;27;20011;-71
2021/12/21 12:51:04;;;;;;;10.73;3.50;;;22.70;99.90;;;;;;5133569;27;20007;-70
2021/12/21 12:53:44;;;;;;;14.85;3.38;;;22.60;99.90;;;;;;5132866;27;20023;-71
2021/12/21 12:56:18;;;;;;;12.10;3.20;;;22.50;99.90;;;;;;5133837;27;20110;-71
2021/12/21 12:59:05;;;;;;;11.95;3.40;;;22.50;99.90;;;;;;5131558;27;20035;-69
2021/12/21 13:01:38;;;;;;;12.57;3.85;;;22.60;99.90;;;;;;5132546;27;20038;-69
2021/12/21 13:04:09;;;;;;;9.23;3.63;;;22.50;99.90;;;;;;5131915;27;20027;-68
2021/12/21 13:06:37;;;;;;;17.45;5.00;;;22.60;99.90;;;;;;5129232;27;20023;-69
2021/12/21 13:09:12;;;;;;;11.55;4.03;;;22.60;99.90;;;;;;5132010;27;20019;-71
2021/12/21 13:11:42;;;;;;;14.73;4.43;;;22.60;99.90;;;;;;5132574;27;20054;-71
2021/12/21 13:14:15;;;;;;;12.15;4.18;;;22.60;99.90;;;;;;5131765;27;20054;-71
2021/12/21 13:16:44;;;;;;;16.35;3.75;;;22.60;99.90;;;;;;5132716;27;20034;-71
2021/12/21 13:19:13;;;;;;;16.27;3.92;;;22.60;99.90;;;;;;5133336;27;20019;-69
2021/12/21 13:21:45;;;;;;;11.88;4.10;;;22.60;99.90;;;;;;5132129;27;20056;-70
2021/12/21 13:24:15;;;;;;;11.57;3.38;;;22.70;99.90;;;;;;5131867;27;20081;-71
2021/12/21 13:26:55;;;;;;;11.18;3.90;;;22.80;99.90;;;;;;5132627;27;20114;-71
2021/12/21 13:29:34;;;;;;;12.13;4.35;;;22.80;99.90;;;;;;5131825;27;20023;-70
2021/12/21 13:32:08;;;;;;;15.82;4.00;;;22.90;99.90;;;;;;5125567;27;20036;-71
2021/12/21 13:34:38;;;;;;;9.45;3.35;;;22.80;99.90;;;;;;5129680;27;20163;-71
2021/12/21 13:37:09;;;;;;;13.05;4.20;;;22.80;99.90;;;;;;5136300;27;20038;-69
2021/12/21 13:39:45;;;;;;;11.43;3.72;;;22.80;99.90;;;;;;5132912;27;20401;-72
2021/12/21 13:42:23;;;;;;;10.13;3.90;;;22.70;99.90;;;;;;5131756;27;20027;-69
2021/12/21 13:44:56;;;;;;;12.93;3.77;;;22.80;99.90;;;;;;5129749;27;20047;-69
2021/12/21 13:47:23;;;;;;;14.50;3.95;;;22.70;99.90;;;;;;5130554;27;20114;-71
2021/12/21 13:49:53;;;;;;;14.00;3.63;;;22.80;99.90;;;;;;5131580;27;20019;-71
2021/12/21 13:52:20;;;;;;;11.13;3.55;;;22.90;99.90;;;;;;5131699;27;20117;-71
2021/12/21 13:54:47;;;;;;;13.77;4.13;;;22.80;99.90;;;;;;5131942;27;20178;-70
2021/12/21 13:57:19;;;;;;;9.00;3.35;;;22.80;99.90;;;;;;5130225;27;20036;-70
2021/12/21 13:59:56;;;;;;;13.63;3.80;;;22.90;99.90;;;;;;5128193;27;20050;-71
2021/12/21 14:02:38;;;;;;;6.60;3.35;;;22.80;99.90;;;;;;5131749;27;20375;-69
2021/12/21 14:05:07;;;;;;;12.15;4.05;;;22.80;99.90;;;;;;5130923;27;20027;-71
2021/12/21 14:07:40;;;;;;;17.65;4.60;;;22.80;99.90;;;;;;5132135;27;20030;-71
2021/12/21 14:10:20;;;;;;;12.50;3.08;;;22.90;99.90;;;;;;5124752;27;20055;-71